Time;durP1;ratioP1;P1;durP2;ratioP2;P2;SDS_P1;SDS_P2;PMS_P1;PMS_P2;Temp;Humidity;BMP_temperature;BMP_pressure;BME280_temperature;BME280_humidity;BME280_pressure;Samples;Min_cycle;Max_cycle;Signal;HPM_P1;HPM_P2
2021/07/29 00:01:03;;;;;;;1.52;0.17;;;;;;;11.81;100.00;98771.19;4680570;30;20057;-75
2021/07/29 00:04:07;;;;;;;0.35;0.15;;;;;;;11.78;100.00;98779.81;4692352;30;20542;-73
2021/07/29 00:07:10;;;;;;;0.95;0.60;;;;;;;11.79;100.00;98772.94;4701543;30;20065;-74
2021/07/29 00:10:14;;;;;;;1.23;0.50;;;;;;;11.78;100.00;98777.75;4701514;30;20069;-74
2021/07/29 00:13:17;;;;;;;7.65;0.80;;;;;;;11.74;100.00;98773.72;4699730;30;20064;-74
2021/07/29 00:16:22;;;;;;;3.45;0.50;;;;;;;11.75;100.00;98783.63;4699727;30;20534;-74
2021/07/29 00:19:26;;;;;;;0.85;0.25;;;;;;;11.76;100.00;98785.88;4699842;30;20065;-74
2021/07/29 00:22:29;;;;;;;0.65;0.38;;;;;;;11.73;100.00;98781.34;4699558;30;20069;-74
2021/07/29 00:25:32;;;;;;;0.47;0.22;;;;;;;11.71;100.00;98783.88;4699659;30;20468;-75
2021/07/29 00:28:36;;;;;;;2.65;0.25;;;;;;;11.73;100.00;98775.75;4699650;30;20064;-74
2021/07/29 00:31:40;;;;;;;5.63;0.50;;;;;;;11.76;100.00;98779.56;4699596;30;20064;-74
2021/07/29 00:34:44;;;;;;;0.50;0.50;;;;;;;11.78;100.00;98777.03;4700036;30;20069;-74
2021/07/29 00:37:49;;;;;;;2.67;0.52;;;;;;;11.76;100.00;98777.50;4699937;30;20540;-74
2021/07/29 00:40:54;;;;;;;0.20;0.20;;;;;;;11.72;100.00;98777.03;4699919;30;20076;-74
2021/07/29 00:44:01;;;;;;;0.63;0.20;;;;;;;11.70;100.00;98785.13;4699772;30;20083;-74
2021/07/29 00:47:10;;;;;;;0.10;0.10;;;;;;;11.71;100.00;98788.69;4699801;30;20065;-74
2021/07/29 00:50:15;;;;;;;0.10;0.10;;;;;;;11.77;100.00;98787.41;4700513;30;20068;-75
2021/07/29 00:53:19;;;;;;;4.18;0.65;;;;;;;11.80;100.00;98785.63;4698960;30;20093;-74
2021/07/29 00:56:22;;;;;;;3.85;0.52;;;;;;;11.82;100.00;98795.03;4698559;30;20146;-74
2021/07/29 00:59:26;;;;;;;0.38;0.15;;;;;;;11.83;100.00;98790.19;4699308;30;20415;-74
2021/07/29 01:02:30;;;;;;;0.15;0.15;;;;;;;11.86;100.00;98795.53;4698983;30;20416;-75
2021/07/29 01:05:33;;;;;;;1.45;0.47;;;;;;;11.84;100.00;98795.28;4690903;30;20061;-75
2021/07/29 01:09:04;;;;;;;0.43;0.32;;;;;;;11.83;100.00;98795.75;4681633;30;20064;-74
2021/07/29 01:12:07;;;;;;;1.95;0.35;;;;;;;11.80;100.00;98803.13;4682264;30;20528;-75
2021/07/29 01:15:11;;;;;;;0.10;0.10;;;;;;;11.77;100.00;98793.00;4681046;30;20065;-75
2021/07/29 01:18:15;;;;;;;1.95;0.28;;;;;;;11.73;100.00;98806.44;4681963;30;20128;-74
2021/07/29 01:21:18;;;;;;;0.20;0.10;;;;;;;11.77;100.00;98795.78;4681773;30;20065;-75
2021/07/29 01:24:23;;;;;;;3.53;0.45;;;;;;;11.76;100.00;98802.63;4681877;30;20073;-74
2021/07/29 01:27:30;;;;;;;0.22;0.22;;;;;;;11.77;100.00;98787.41;4681175;30;20080;-74
2021/07/29 01:30:33;;;;;;;0.20;0.20;;;;;;;11.73;100.00;98800.88;4682767;30;20064;-74
2021/07/29 01:33:37;;;;;;;1.50;0.15;;;;;;;11.71;100.00;98794.28;4681498;30;20061;-74
2021/07/29 01:36:41;;;;;;;0.10;0.10;;;;;;;11.74;100.00;98799.56;4682341;30;20065;-74
2021/07/29 01:39:44;;;;;;;0.10;0.10;;;;;;;11.74;100.00;98809.97;4682830;30;20081;-74
2021/07/29 01:42:48;;;;;;;0.20;0.20;;;;;;;11.80;100.00;98808.69;4682634;30;20416;-74
2021/07/29 01:45:51;;;;;;;0.30;0.10;;;;;;;11.78;100.00;98805.66;4682700;30;20519;-74
2021/07/29 01:48:54;;;;;;;0.20;0.20;;;;;;;11.77;100.00;98808.97;4682578;30;20170;-74
2021/07/29 01:51:58;;;;;;;0.63;0.20;;;;;;;11.71;100.00;98808.22;4682615;30;20061;-74
2021/07/29 01:55:02;;;;;;;2.10;0.57;;;;;;;11.71;100.00;98808.97;4682545;30;20064;-74
2021/07/29 01:58:05;;;;;;;0.10;0.10;;;;;;;11.69;100.00;98814.31;4682213;30;20420;-74
2021/07/29 02:01:08;;;;;;;0.10;0.10;;;;;;;11.69;100.00;98813.53;4682370;30;20075;-75
2021/07/29 02:04:11;;;;;;;0.20;0.20;;;;;;;11.68;100.00;98812.00;4690801;30;20072;-74
2021/07/29 02:07:15;;;;;;;1.55;0.22;;;;;;;11.72;100.00;98815.28;4699633;30;20420;-74
2021/07/29 02:10:18;;;;;;;0.93;0.52;;;;;;;11.71;100.00;98817.34;4698966;30;20057;-75
2021/07/29 02:13:21;;;;;;;0.90;0.20;;;;;;;11.66;100.00;98809.72;4699082;30;20080;-74
2021/07/29 02:16:26;;;;;;;0.10;0.10;;;;;;;11.64;100.00;98812.25;4698984;30;20065;-74
2021/07/29 02:19:29;;;;;;;0.43;0.28;;;;;;;11.57;100.00;98812.75;4698850;30;20531;-74
2021/07/29 02:22:33;;;;;;;1.55;0.38;;;;;;;11.47;100.00;98819.09;4698860;30;20080;-74
2021/07/29 02:25:36;;;;;;;1.17;0.32;;;;;;;11.41;100.00;98821.88;4698698;30;20056;-74
2021/07/29 02:28:40;;;;;;;0.10;0.10;;;;;;;11.41;100.00;98830.25;4698893;30;20530;-74
2021/07/29 02:31:43;;;;;;;0.75;0.50;;;;;;;11.38;100.00;98825.69;4699284;30;20057;-74
2021/07/29 02:34:47;;;;;;;1.08;0.20;;;;;;;11.33;100.00;98824.41;4699235;30;20143;-74
2021/07/29 02:37:50;;;;;;;0.63;0.20;;;;;;;11.36;100.00;98825.44;4698960;30;20412;-74
2021/07/29 02:40:53;;;;;;;0.57;0.35;;;;;;;11.35;100.00;98829.47;4699062;30;20065;-73
2021/07/29 02:43:57;;;;;;;0.17;0.10;;;;;;;11.29;100.00;98834.28;4699012;30;20076;-74
2021/07/29 02:47:01;;;;;;;0.60;0.38;;;;;;;11.17;100.00;98835.53;4699100;30;20060;-74
2021/07/29 02:50:05;;;;;;;3.13;0.30;;;;;;;11.10;100.00;98836.03;4699049;30;20073;-74
2021/07/29 02:53:09;;;;;;;0.30;0.30;;;;;;;11.04;100.00;98824.13;4698659;30;20084;-75
2021/07/29 02:56:12;;;;;;;0.10;0.10;;;;;;;10.95;100.00;98827.13;4698829;30;20068;-74
2021/07/29 02:59:15;;;;;;;0.38;0.10;;;;;;;10.91;100.00;98827.38;4698835;30;20061;-74
2021/07/29 03:02:18;;;;;;;2.75;0.22;;;;;;;10.87;100.00;98832.41;4701026;30;20571;-74
2021/07/29 03:05:22;;;;;;;0.30;0.30;;;;;;;10.77;100.00;98830.38;4680680;30;20424;-75
2021/07/29 03:08:26;;;;;;;1.45;0.50;;;;;;;10.70;100.00;98836.44;4684731;30;20059;-75
2021/07/29 03:11:29;;;;;;;0.63;0.25;;;;;;;10.68;100.00;98836.19;4697712;30;20065;-74
2021/07/29 03:14:33;;;;;;;0.20;0.20;;;;;;;10.60;100.00;98836.66;4697487;30;20065;-75
2021/07/29 03:17:36;;;;;;;0.20;0.20;;;;;;;10.57;100.00;98842.44;4698111;30;20065;-75
2021/07/29 03:20:41;;;;;;;0.93;0.50;;;;;;;10.48;100.00;98843.41;4697167;30;20064;-75
2021/07/29 03:23:45;;;;;;;2.00;0.50;;;;;;;10.38;100.00;98844.13;4688615;30;20069;-75
2021/07/29 03:26:48;;;;;;;0.68;0.10;;;;;;;10.27;100.00;98844.84;4685699;30;20073;-75
2021/07/29 03:29:51;;;;;;;0.22;0.10;;;;;;;10.19;100.00;98854.91;4694736;30;20068;-75
2021/07/29 03:32:55;;;;;;;1.30;0.38;;;;;;;10.11;100.00;98847.53;4698236;30;20060;-75
2021/07/29 03:35:58;;;;;;;3.90;0.30;;;;;;;10.06;100.00;98846.22;4698511;30;20060;-74
2021/07/29 03:39:05;;;;;;;0.10;0.10;;;;;;;10.03;100.00;98849.97;4698359;30;20061;-74
2021/07/29 03:42:08;;;;;;;0.28;0.15;;;;;;;10.04;100.00;98867.44;4698394;30;20088;-74
2021/07/29 03:45:12;;;;;;;3.00;0.57;;;;;;;10.06;100.00;98865.69;4698392;30;20530;-74
2021/07/29 03:48:15;;;;;;;0.20;0.20;;;;;;;10.04;100.00;98865.41;4698284;30;20134;-74
2021/07/29 03:51:19;;;;;;;0.55;0.30;;;;;;;9.97;100.00;98865.88;4698165;30;20065;-75
2021/07/29 03:54:22;;;;;;;0.98;0.30;;;;;;;9.90;100.00;98871.88;4697523;30;20069;-74
2021/07/29 03:57:26;;;;;;;0.20;0.20;;;;;;;9.89;100.00;98867.59;4697796;30;20061;-74
2021/07/29 04:00:29;;;;;;;0.22;0.22;;;;;;;9.79;100.00;98860.66;4697637;30;20073;-74
2021/07/29 04:03:32;;;;;;;0.22;0.20;;;;;;;9.75;100.00;98865.69;4697632;30;20076;-74
2021/07/29 04:06:35;;;;;;;0.68;0.40;;;;;;;9.74;100.00;98869.75;4697801;30;20068;-75
2021/07/29 04:09:39;;;;;;;0.50;0.50;;;;;;;9.69;100.00;98873.25;4697803;30;20072;-74
2021/07/29 04:12:42;;;;;;;0.20;0.20;;;;;;;9.66;100.00;98871.44;4697802;30;20057;-74
2021/07/29 04:15:45;;;;;;;1.27;0.17;;;;;;;9.61;100.00;98880.50;4698040;30;20060;-74
2021/07/29 04:18:48;;;;;;;2.05;0.77;;;;;;;9.56;100.00;98881.97;4697620;30;20124;-74
2021/07/29 04:21:52;;;;;;;1.08;0.30;;;;;;;9.51;100.00;98876.34;4697868;30;20061;-74
2021/07/29 04:24:55;;;;;;;1.48;0.57;;;;;;;9.45;100.00;98881.09;4698027;30;20178;-74
2021/07/29 04:27:58;;;;;;;0.30;0.25;;;;;;;9.42;100.00;98887.66;4697942;30;20124;-74
2021/07/29 04:31:02;;;;;;;4.63;0.30;;;;;;;9.40;100.00;98887.41;4698130;30;20061;-74
2021/07/29 04:34:05;;;;;;;3.88;0.28;;;;;;;9.37;100.00;98886.34;4695176;30;20073;-74
2021/07/29 04:37:10;;;;;;;0.60;0.40;;;;;;;9.38;100.00;98876.75;4691829;30;20411;-74
2021/07/29 04:40:14;;;;;;;1.00;0.43;;;;;;;9.38;100.00;98885.09;4685547;30;20057;-75
2021/07/29 04:43:17;;;;;;;0.30;0.30;;;;;;;9.37;100.00;98891.91;4680829;30;20069;-74
2021/07/29 04:46:20;;;;;;;0.63;0.57;;;;;;;9.37;100.00;98896.69;4689268;30;20171;-74
2021/07/29 04:49:24;;;;;;;0.30;0.17;;;;;;;9.37;100.00;98891.16;4689926;30;20061;-75
2021/07/29 04:52:27;;;;;;;0.50;0.32;;;;;;;9.35;100.00;98893.66;4700014;30;20535;-74
2021/07/29 04:55:30;;;;;;;0.80;0.25;;;;;;;9.33;100.00;98887.84;4700292;30;20072;-75
2021/07/29 04:58:34;;;;;;;1.10;0.30;;;;;;;9.33;100.00;98890.59;4700312;30;20069;-75
2021/07/29 05:01:39;;;;;;;0.55;0.52;;;;;;;9.31;100.00;98891.09;4700273;30;20070;-74
2021/07/29 05:04:42;;;;;;;1.45;0.57;;;;;;;9.31;100.00;98898.66;4700421;30;20067;-74
2021/07/29 05:07:50;;;;;;;0.90;0.32;;;;;;;9.29;100.00;98892.84;4700663;30;20053;-75
2021/07/29 05:10:54;;;;;;;0.80;0.30;;;;;;;9.30;100.00;98909.00;4700714;30;20530;-75
2021/07/29 05:13:57;;;;;;;2.13;0.20;;;;;;;9.29;100.00;98898.41;4700675;30;20056;-75
2021/07/29 05:17:02;;;;;;;0.13;0.10;;;;;;;9.35;100.00;98904.78;4700082;30;20060;-74
2021/07/29 05:20:05;;;;;;;0.30;0.30;;;;;;;9.37;100.00;98893.94;4700006;30;20065;-74
2021/07/29 05:23:09;;;;;;;0.40;0.38;;;;;;;9.44;100.00;98897.00;4700039;30;20065;-77
2021/07/29 05:26:17;;;;;;;4.85;1.65;;;;;;;9.51;100.00;98890.25;4700345;30;20080;-75
2021/07/29 05:29:20;;;;;;;0.95;0.65;;;;;;;9.61;100.00;98895.19;4699814;30;20065;-74
2021/07/29 05:32:23;;;;;;;0.77;0.70;;;;;;;9.76;100.00;98900.59;4699885;30;20056;-74
2021/07/29 05:35:27;;;;;;;0.65;0.45;;;;;;;9.82;100.00;98893.06;4690821;30;20069;-75
2021/07/29 05:38:31;;;;;;;0.80;0.20;;;;;;;10.00;100.00;98906.59;4692159;30;20076;-75
2021/07/29 05:41:35;;;;;;;2.80;0.98;;;;;;;10.12;100.00;98905.44;4682765;30;20195;-74
2021/07/29 05:44:38;;;;;;;3.33;0.65;;;;;;;10.20;100.00;98900.94;4682604;30;20073;-74
2021/07/29 05:47:43;;;;;;;0.20;0.20;;;;;;;10.42;100.00;98914.22;4682454;30;20064;-75
2021/07/29 05:50:46;;;;;;;0.38;0.20;;;;;;;10.53;100.00;98911.50;4682693;30;20057;-75
2021/07/29 05:53:50;;;;;;;3.50;0.47;;;;;;;10.64;100.00;98914.34;4682371;30;20065;-75
2021/07/29 05:56:53;;;;;;;0.30;0.30;;;;;;;10.68;100.00;98911.34;4682374;30;20064;-75
2021/07/29 05:59:56;;;;;;;2.15;0.32;;;;;;;10.77;100.00;98908.34;4682215;30;20060;-75
2021/07/29 06:03:00;;;;;;;0.20;0.20;;;;;;;10.87;100.00;98912.44;4682321;30;20554;-75
2021/07/29 06:06:03;;;;;;;0.30;0.10;;;;;;;10.97;100.00;98916.53;4682466;30;20061;-76
2021/07/29 06:09:06;;;;;;;0.60;0.47;;;;;;;11.13;100.00;98916.56;4682205;30;20061;-75
2021/07/29 06:12:09;;;;;;;0.98;0.25;;;;;;;11.26;100.00;98911.28;4682515;30;20061;-75
2021/07/29 06:15:12;;;;;;;0.20;0.20;;;;;;;11.39;100.00;98914.38;4682367;30;20140;-75
2021/07/29 06:18:16;;;;;;;2.08;0.22;;;;;;;11.43;100.00;98914.13;4682184;30;20061;-75
2021/07/29 06:21:19;;;;;;;3.63;0.63;;;;;;;11.43;100.00;98914.13;4681831;30;20057;-75
2021/07/29 06:24:23;;;;;;;0.55;0.15;;;;;;;11.64;100.00;98923.78;4681498;30;20061;-75
2021/07/29 06:27:27;;;;;;;1.00;0.32;;;;;;;11.74;100.00;98924.31;4681429;30;20412;-75
2021/07/29 06:30:30;;;;;;;22.50;0.75;;;;;;;11.76;100.00;98925.34;4681788;30;20068;-75
2021/07/29 06:33:34;;;;;;;1.15;0.10;;;;;;;11.79;100.00;98918.78;4681527;30;20057;-75
2021/07/29 06:36:38;;;;;;;0.20;0.20;;;;;;;11.81;100.00;98921.81;4681743;30;20093;-75
2021/07/29 06:39:41;;;;;;;2.83;0.28;;;;;;;11.87;100.00;98919.78;4681318;30;20077;-75
2021/07/29 06:42:44;;;;;;;0.10;0.10;;;;;;;11.94;100.00;98924.09;4681920;30;20405;-75
2021/07/29 06:45:48;;;;;;;7.30;0.40;;;;;;;12.11;100.00;98922.81;4681770;30;20068;-75
2021/07/29 06:48:51;;;;;;;1.20;0.38;;;;;;;12.27;100.00;98912.91;4681729;30;20065;-75
2021/07/29 06:51:54;;;;;;;0.30;0.30;;;;;;;12.37;100.00;98916.19;4681722;30;20449;-75
2021/07/29 06:54:58;;;;;;;0.32;0.17;;;;;;;12.44;100.00;98915.66;4681611;30;20065;-75
2021/07/29 06:58:01;;;;;;;0.80;0.43;;;;;;;12.53;100.00;98923.78;4687508;30;20068;-76
2021/07/29 07:01:06;;;;;;;2.40;0.65;;;;;;;12.63;100.00;98925.00;4698576;30;20457;-76
2021/07/29 07:04:09;;;;;;;0.57;0.20;;;;;;;12.70;100.00;98918.91;4698758;30;20061;-76
2021/07/29 07:07:16;;;;;;;0.52;0.28;;;;;;;12.75;100.00;98920.91;4698679;30;20123;-76
2021/07/29 07:10:19;;;;;;;3.75;0.50;;;;;;;12.87;100.00;98902.84;4698321;30;20056;-76
2021/07/29 07:13:23;;;;;;;1.50;0.47;;;;;;;12.93;100.00;98917.53;4697482;30;20068;-75
2021/07/29 07:16:26;;;;;;;2.35;0.30;;;;;;;13.31;100.00;98919.44;4698294;30;20064;-76
2021/07/29 07:19:29;;;;;;;0.30;0.20;;;;;;;13.79;100.00;98921.66;4698180;30;20068;-76
2021/07/29 07:22:33;;;;;;;0.30;0.20;;;;;;;14.20;100.00;98915.97;4698138;30;20416;-75
2021/07/29 07:25:37;;;;;;;1.10;0.20;;;;;;;14.15;100.00;98922.38;4698167;30;20428;-75
2021/07/29 07:28:41;;;;;;;6.18;0.30;;;;;;;13.87;100.00;98922.63;4700525;30;20065;-76
2021/07/29 07:31:44;;;;;;;0.20;0.20;;;;;;;13.81;100.00;98929.53;4697682;30;20073;-75
2021/07/29 07:34:48;;;;;;;0.43;0.08;;;;;;;13.82;100.00;98922.66;4698004;30;20069;-75
2021/07/29 07:37:52;;;;;;;0.28;0.28;;;;;;;13.81;100.00;98929.53;4698365;30;20056;-75
2021/07/29 07:40:56;;;;;;;0.20;0.17;;;;;;;13.82;100.00;98933.88;4698382;30;20073;-75
2021/07/29 07:43:59;;;;;;;0.10;0.10;;;;;;;13.84;100.00;98932.03;4698306;30;20061;-75
2021/07/29 07:47:03;;;;;;;3.42;0.20;;;;;;;13.78;100.00;98933.34;4698371;30;20052;-75
2021/07/29 07:50:07;;;;;;;0.20;0.00;;;;;;;13.88;100.00;98940.19;4698212;30;20080;-75
2021/07/29 07:53:10;;;;;;;0.25;0.25;;;;;;;14.08;100.00;98939.75;4697135;30;20071;-75
2021/07/29 07:56:14;;;;;;;0.20;0.03;;;;;;;14.04;100.00;98937.25;4698108;30;20080;-75
2021/07/29 07:59:17;;;;;;;0.57;0.30;;;;;;;14.03;100.00;98944.13;4698052;30;20420;-75
2021/07/29 08:02:20;;;;;;;0.45;0.32;;;;;;;14.03;100.00;98948.97;4697970;30;20060;-74
2021/07/29 08:05:23;;;;;;;0.65;0.22;;;;;;;14.15;100.00;98950.38;4697506;30;20134;-74
2021/07/29 08:08:27;;;;;;;2.00;0.57;;;;;;;14.25;100.00;98948.78;4697521;30;20061;-76
2021/07/29 08:11:30;;;;;;;0.85;0.45;;;;;;;14.49;100.00;98956.50;4697791;30;20057;-74
2021/07/29 08:14:35;;;;;;;1.15;0.40;;;;;;;14.75;100.00;98957.47;4697465;30;20142;-76
2021/07/29 08:17:39;;;;;;;0.20;0.20;;;;;;;15.01;100.00;98957.69;4697704;30;21142;-75
2021/07/29 08:20:44;;;;;;;0.10;0.10;;;;;;;15.23;100.00;98967.09;4697675;30;20052;-75
2021/07/29 08:23:48;;;;;;;0.13;0.10;;;;;;;15.48;100.00;98960.97;4697177;30;20052;-75
2021/07/29 08:26:51;;;;;;;0.30;0.10;;;;;;;15.82;100.00;98961.22;4695834;30;20068;-75
2021/07/29 08:29:54;;;;;;;1.75;0.17;;;;;;;15.68;100.00;98962.47;4684101;30;20140;-75
2021/07/29 08:32:58;;;;;;;0.20;0.13;;;;;;;15.89;100.00;98969.03;4685103;30;20065;-75
2021/07/29 08:36:02;;;;;;;1.15;0.20;;;;;;;16.18;100.00;98964.50;4692287;30;20069;-75
2021/07/29 08:39:06;;;;;;;0.20;0.20;;;;;;;16.23;100.00;98967.22;4697703;30;20483;-75
2021/07/29 08:42:10;;;;;;;1.05;0.28;;;;;;;16.31;100.00;98972.97;4701169;30;20056;-75
2021/07/29 08:45:14;;;;;;;0.10;0.00;;;;;;;16.29;100.00;98983.97;4701100;30;20072;-74
2021/07/29 08:48:29;;;;;;;1.10;0.10;;;;;;;16.24;100.00;98979.97;4700843;30;20064;-74
2021/07/29 08:51:32;;;;;;;0.17;0.17;;;;;;;16.12;100.00;98989.88;4700672;30;20519;-75
2021/07/29 08:54:38;;;;;;;0.20;0.13;;;;;;;16.35;100.00;98993.09;4693216;30;20139;-76
2021/07/29 08:57:42;;;;;;;0.13;0.10;;;;;;;16.25;100.00;98981.50;4683281;30;20081;-77
2021/07/29 09:01:01;;;;;;;0.55;0.10;;;;;;;16.30;100.00;98983.47;4683269;30;20065;-76
2021/07/29 09:04:13;;;;;;;2.05;0.40;;;;;;;16.38;100.00;98980.75;4690807;30;20061;-72
2021/07/29 09:07:16;;;;;;;0.20;0.20;;;;;;;16.63;100.00;98973.72;4700574;30;20068;-71
2021/07/29 09:10:22;;;;;;;0.50;0.30;;;;;;;17.00;100.00;98981.22;4700007;30;20061;-73
2021/07/29 09:13:26;;;;;;;0.43;0.10;;;;;;;17.20;100.00;98978.50;4699999;30;20065;-73
2021/07/29 09:16:37;;;;;;;0.10;0.10;;;;;;;17.25;100.00;98982.50;4699928;30;20072;-73
2021/07/29 09:19:47;;;;;;;3.25;0.15;;;;;;;16.96;100.00;98975.91;4699913;30;20065;-73
2021/07/29 09:22:53;;;;;;;0.10;0.10;;;;;;;16.83;100.00;98986.41;4700212;30;20519;-73
2021/07/29 09:26:00;;;;;;;0.35;0.10;;;;;;;16.72;100.00;98990.16;4700090;30;20069;-73
2021/07/29 09:29:20;;;;;;;0.10;0.10;;;;;;;16.65;100.00;99002.78;4694641;30;20067;-74
2021/07/29 09:32:23;;;;;;;1.88;0.52;;;;;;;16.62;100.00;98997.50;4682352;30;20536;-73
2021/07/29 09:35:39;;;;;;;2.10;0.30;;;;;;;16.70;100.00;99003.25;4681941;30;20065;-73
2021/07/29 09:38:43;;;;;;;6.75;0.20;;;;;;;16.91;100.00;98996.47;4682538;30;20132;-73
2021/07/29 09:41:48;;;;;;;2.30;0.20;;;;;;;17.16;100.00;99000.56;4683865;30;20061;-73
2021/07/29 09:44:54;;;;;;;1.20;0.20;;;;;;;17.39;100.00;99000.88;4682055;30;20068;-74
2021/07/29 09:47:57;;;;;;;0.40;0.10;;;;;;;17.37;100.00;98998.59;4682785;30;20486;-73
2021/07/29 09:51:01;;;;;;;0.45;0.10;;;;;;;17.25;100.00;99005.78;4682658;30;20068;-74
2021/07/29 09:54:05;;;;;;;0.10;0.10;;;;;;;17.14;100.00;98999.59;4682401;30;20057;-74
2021/07/29 09:57:09;;;;;;;1.05;0.10;;;;;;;17.08;100.00;99005.34;4682647;30;20515;-74
2021/07/29 10:00:14;;;;;;;3.53;0.20;;;;;;;17.19;100.00;99002.31;4682590;30;20067;-74
2021/07/29 10:03:21;;;;;;;0.20;0.10;;;;;;;17.37;100.00;98998.59;4684319;30;20057;-74
2021/07/29 10:06:27;;;;;;;0.40;0.10;;;;;;;17.56;100.00;99004.16;4699280;30;20065;-74
2021/07/29 10:09:35;;;;;;;0.45;0.10;;;;;;;17.84;100.00;99001.47;4699219;30;20514;-74
2021/07/29 10:12:39;;;;;;;3.80;1.08;;;;;;;18.06;100.00;98995.31;4698567;30;20068;-74
2021/07/29 10:15:44;;;;;;;0.10;0.10;;;;;;;18.29;100.00;98998.38;4699062;30;20080;-74
2021/07/29 10:18:51;;;;;;;0.30;0.10;;;;;;;18.50;100.00;98987.88;4698629;30;20064;-74
2021/07/29 10:22:22;;;;;;;0.30;0.10;;;;;;;18.41;100.00;98993.22;4699320;30;20057;-74
2021/07/29 10:26:04;;;;;;;0.15;0.00;;;;;;;18.30;100.00;99002.69;4694097;30;20077;-74
2021/07/29 10:29:31;;;;;;;1.98;0.17;;;;;;;18.25;100.00;99006.41;4699165;30;20068;-74
2021/07/29 10:32:48;;;;;;;0.15;0.00;;;;;;;18.16;100.00;98999.19;4698951;30;20072;-74
2021/07/29 10:35:52;;;;;;;0.10;0.00;;;;;;;18.10;100.00;99007.00;4699095;30;20069;-74
2021/07/29 10:39:04;;;;;;;3.65;0.10;;;;;;;18.07;100.00;99002.47;4699227;30;20060;-74
2021/07/29 10:42:07;;;;;;;1.27;0.10;;;;;;;18.03;100.00;99001.31;4699204;30;20072;-74
2021/07/29 10:45:10;;;;;;;3.03;0.20;;;;;;;18.01;100.00;99009.53;4699033;30;20156;-74
2021/07/29 10:48:38;;;;;;;0.52;0.10;;;;;;;17.93;100.00;99009.44;4698887;30;20131;-73
2021/07/29 10:52:18;;;;;;;0.15;0.13;;;;;;;17.89;100.00;99003.41;4698431;30;20072;-74
2021/07/29 10:55:22;;;;;;;0.50;0.20;;;;;;;17.87;100.00;99010.88;4729521;30;20134;-74
2021/07/29 10:58:25;;;;;;;0.30;0.10;;;;;;;17.61;100.00;99014.50;4698399;30;20060;-73
2021/07/29 11:01:47;;;;;;;0.38;0.10;;;;;;;17.50;100.00;99017.56;4698668;30;20507;-73
2021/07/29 11:04:53;;;;;;;2.72;0.30;;;;;;;17.67;100.00;99009.50;4698856;30;20061;-73
2021/07/29 11:07:56;;;;;;;3.42;0.20;;;;;;;17.94;100.00;99010.97;4698797;30;20535;-73
2021/07/29 11:11:01;;;;;;;0.65;0.13;;;;;;;18.14;100.00;99007.44;4698641;30;20072;-72
2021/07/29 11:14:06;;;;;;;0.38;0.00;;;;;;;18.32;100.00;99004.97;4698471;30;20057;-74
2021/07/29 11:17:10;;;;;;;0.30;0.00;;;;;;;18.54;100.00;99012.91;4698362;30;20064;-74
2021/07/29 11:20:25;;;;;;;0.73;0.20;;;;;;;18.56;100.00;99013.84;4698526;30;20061;-74
2021/07/29 11:23:37;;;;;;;1.15;0.10;;;;;;;18.68;100.00;99008.69;4698311;30;20065;-74
2021/07/29 11:26:42;;;;;;;0.50;0.22;;;;;;;18.90;100.00;99008.13;4697988;30;20534;-74
2021/07/29 11:29:53;;;;;;;0.20;0.10;;;;;;;19.19;100.00;99009.63;4697222;30;20061;-73
2021/07/29 11:32:57;;;;;;;4.38;0.10;;;;;;;19.15;100.00;99012.03;4688561;30;20073;-74
2021/07/29 11:36:09;;;;;;;1.95;0.10;;;;;;;19.38;100.00;99007.31;4689786;30;20074;-74
2021/07/29 11:39:13;;;;;;;0.65;0.30;;;;;;;19.68;100.00;99003.88;4698429;30;20489;-74
2021/07/29 11:42:16;;;;;;;0.45;0.00;;;;;;;19.88;100.00;99019.97;4698679;30;20430;-73
2021/07/29 11:45:32;;;;;;;2.05;0.20;;;;;;;19.73;100.00;99019.91;4695588;30;20064;-74
2021/07/29 11:48:37;;;;;;;0.10;0.00;;;;;;;19.38;100.00;99024.25;4693407;30;20047;-74
2021/07/29 11:51:42;;;;;;;0.00;0.00;;;;;;;19.69;100.00;99028.00;4687002;30;20069;-74
2021/07/29 11:54:45;;;;;;;2.85;0.10;;;;;;;19.93;100.00;99016.22;4680603;30;20073;-74
2021/07/29 11:57:49;;;;;;;1.08;0.10;;;;;;;20.27;100.00;99015.97;4681284;30;20065;-74
2021/07/29 12:00:54;;;;;;;0.20;0.10;;;;;;;20.76;100.00;99002.22;4684720;30;20061;-74
2021/07/29 12:03:58;;;;;;;0.00;0.00;;;;;;;20.86;100.00;99014.47;4691187;30;20064;-74
2021/07/29 12:07:03;;;;;;;0.03;0.03;;;;;;;20.64;100.00;99018.06;4699938;30;20053;-75
2021/07/29 12:10:07;;;;;;;0.28;0.03;;;;;;;19.89;100.00;99027.13;4700738;30;20060;-74
2021/07/29 12:13:13;;;;;;;0.10;0.10;;;;;;;19.43;100.00;99031.81;4701527;30;20078;-74
2021/07/29 12:16:17;;;;;;;0.30;0.00;;;;;;;19.21;100.00;99035.22;4701573;30;20057;-74
2021/07/29 12:19:22;;;;;;;0.00;0.00;;;;;;;19.29;100.00;99024.75;4700373;30;20060;-75
2021/07/29 12:22:27;;;;;;;1.30;0.15;;;;;;;19.60;100.00;99026.44;4700878;30;20056;-74
2021/07/29 12:25:31;;;;;;;0.65;0.38;;;;;;;19.53;100.00;99029.25;4700855;30;20060;-75
2021/07/29 12:28:45;;;;;;;1.65;0.28;;;;;;;19.35;100.00;99042.31;4700991;30;20056;-74
2021/07/29 12:31:49;;;;;;;0.28;0.00;;;;;;;19.06;100.00;99032.31;4701419;30;20060;-75
2021/07/29 12:34:54;;;;;;;0.20;0.00;;;;;;;18.72;100.00;99026.03;4701334;30;20065;-74
2021/07/29 12:37:58;;;;;;;0.55;0.25;;;;;;;18.71;100.00;99035.81;4701289;30;20064;-74
2021/07/29 12:41:03;;;;;;;0.30;0.10;;;;;;;18.57;100.00;99048.47;4701024;30;20076;-74
2021/07/29 12:44:15;;;;;;;0.17;0.10;;;;;;;18.25;100.00;99039.47;4701020;30;20080;-75
2021/07/29 12:47:19;;;;;;;0.35;0.00;;;;;;;17.97;100.00;99040.88;4700968;30;20053;-75
2021/07/29 12:50:36;;;;;;;0.05;0.00;;;;;;;17.74;100.00;99041.88;4698880;30;20057;-77
2021/07/29 12:53:39;;;;;;;0.55;0.10;;;;;;;17.67;100.00;99048.94;4700446;30;20080;-76
2021/07/29 12:56:44;;;;;;;1.23;0.10;;;;;;;17.57;100.00;99044.31;4700525;30;20060;-75
2021/07/29 12:59:48;;;;;;;2.00;0.55;;;;;;;17.36;100.00;99047.78;4700883;30;20060;-78
2021/07/29 13:02:51;;;;;;;2.92;0.30;;;;;;;17.26;100.00;99060.00;4686027;30;20065;-76
2021/07/29 13:05:56;;;;;;;0.47;0.10;;;;;;;17.24;100.00;99062.56;4700799;30;20060;-76
2021/07/29 13:08:59;;;;;;;10.43;0.20;;;;;;;17.33;100.00;99065.72;4700625;30;20061;-76
2021/07/29 13:12:04;;;;;;;2.40;0.10;;;;;;;17.30;100.00;99061.16;4700846;30;20064;-76
2021/07/29 13:15:10;;;;;;;0.20;0.00;;;;;;;17.27;100.00;99061.50;4701059;30;20561;-78
2021/07/29 13:18:14;;;;;;;1.55;0.10;;;;;;;17.30;100.00;99055.53;4700879;30;20061;-75
2021/07/29 13:21:17;;;;;;;4.03;0.30;;;;;;;17.34;100.00;99055.25;4700820;30;20507;-75
2021/07/29 13:24:20;;;;;;;0.25;0.05;;;;;;;17.26;100.00;99060.75;4700242;30;20069;-73
2021/07/29 13:27:25;;;;;;;1.30;0.00;;;;;;;17.22;100.00;99060.31;4700108;30;20068;-73
2021/07/29 13:30:28;;;;;;;0.10;0.10;;;;;;;17.25;100.00;99075.38;4699966;30;20068;-75
2021/07/29 13:33:32;;;;;;;1.35;0.17;;;;;;;17.16;100.00;99067.34;4700009;30;20053;-75
2021/07/29 13:36:36;;;;;;;0.45;0.20;;;;;;;16.97;100.00;99075.13;4699975;30;20060;-75
2021/07/29 13:39:41;;;;;;;0.40;0.10;;;;;;;16.90;100.00;99067.31;4699863;30;20081;-75
2021/07/29 13:42:50;;;;;;;3.95;0.20;;;;;;;16.95;100.00;99074.91;4700247;30;20056;-74
2021/07/29 13:45:53;;;;;;;0.85;0.20;;;;;;;16.88;100.00;99070.66;4700109;30;20060;-76
2021/07/29 13:48:57;;;;;;;0.38;0.00;;;;;;;16.82;100.00;99080.50;4700085;30;20060;-74
2021/07/29 13:52:00;;;;;;;0.63;0.20;;;;;;;16.75;100.00;99081.13;4700639;30;20060;-75
2021/07/29 13:55:05;;;;;;;2.70;0.20;;;;;;;16.71;100.00;99083.50;4701708;30;20072;-76
2021/07/29 13:58:08;;;;;;;0.10;0.10;;;;;;;16.64;100.00;99091.25;4700705;30;20119;-76
2021/07/29 14:01:11;;;;;;;1.10;0.20;;;;;;;16.57;100.00;99083.44;4699697;30;20065;-76
2021/07/29 14:04:17;;;;;;;0.10;0.10;;;;;;;16.61;100.00;99081.06;4690706;30;20531;-76
2021/07/29 14:07:21;;;;;;;0.10;0.05;;;;;;;16.56;100.00;99084.00;4682388;30;20061;-76
2021/07/29 14:10:24;;;;;;;6.32;0.10;;;;;;;16.52;100.00;99075.84;4682109;30;20065;-76
2021/07/29 14:13:28;;;;;;;0.20;0.20;;;;;;;16.78;100.00;99082.88;4682353;30;20065;-75
2021/07/29 14:16:31;;;;;;;0.73;0.20;;;;;;;17.26;100.00;99074.81;4682256;30;20084;-74
2021/07/29 14:19:46;;;;;;;0.52;0.20;;;;;;;17.54;100.00;99076.38;4681951;30;20069;-74
2021/07/29 14:25:54;;;;;;;0.90;0.40;;;;;;;17.43;100.00;99075.25;4682736;30;20069;-74